Time;durP1;ratioP1;P1;durP2;ratioP2;P2;SDS_P1;SDS_P2;PMS_P1;PMS_P2;Temp;Humidity;BMP_temperature;BMP_pressure;BME280_temperature;BME280_humidity;BME280_pressure;Samples;Min_cycle;Max_cycle;Signal;HPM_P1;HPM_P2
2021/10/02 00:34:20;;;;;;;;;;;11.80;83.40;;;;;;5018402;29;20148;-71
2021/10/02 00:45:06;;;;;;;12.95;11.95;;;11.90;84.90;;;;;;5017737;29;20534;-69
2021/10/02 00:47:38;;;;;;;12.63;11.50;;;11.90;85.30;;;;;;5017324;29;20077;-69
2021/10/02 00:50:10;;;;;;;12.73;11.50;;;11.90;84.60;;;;;;5017403;29;20605;-69
2021/10/02 00:52:42;;;;;;;12.50;11.50;;;11.90;84.70;;;;;;5017268;29;20082;-68
2021/10/02 00:55:14;;;;;;;12.77;11.57;;;12.00;84.40;;;;;;5017378;29;20059;-69
2021/10/02 00:57:46;;;;;;;12.63;11.52;;;11.90;84.40;;;;;;5016214;29;20101;-69
2021/10/02 01:00:20;;;;;;;12.70;11.70;;;11.90;84.70;;;;;;5017743;29;20128;-70
2021/10/02 01:03:24;;;;;;;13.27;12.27;;;11.90;85.40;;;;;;5017574;29;20145;-70
2021/10/02 01:06:46;;;;;;;12.98;11.98;;;11.90;85.20;;;;;;4982539;29;20428;-69
2021/10/02 01:09:51;;;;;;;13.27;12.18;;;11.90;86.50;;;;;;4995309;29;20136;-71
2021/10/02 01:12:43;;;;;;;13.38;12.23;;;11.80;86.30;;;;;;5016860;29;20045;-69
2021/10/02 01:15:38;;;;;;;13.50;12.40;;;11.80;86.90;;;;;;5015352;29;20053;-69
2021/10/02 01:18:29;;;;;;;13.23;12.10;;;11.70;86.90;;;;;;5017241;29;20109;-71
2021/10/02 01:21:38;;;;;;;13.77;12.68;;;11.70;85.90;;;;;;5017214;29;20053;-69
2021/10/02 01:24:47;;;;;;;12.77;11.77;;;11.80;85.40;;;;;;5016886;29;20153;-70
2021/10/02 01:27:48;;;;;;;13.15;12.05;;;11.80;85.80;;;;;;5016147;29;20049;-69
2021/10/02 01:33:35;;;;;;;13.43;12.32;;;11.80;85.30;;;;;;5016909;29;20328;-69
2021/10/02 01:47:52;;;;;;;14.18;13.00;;;11.80;86.80;;;;;;5015261;29;20506;-69
2021/10/02 01:50:27;;;;;;;13.88;12.73;;;11.80;87.60;;;;;;5016936;29;20077;-69
2021/10/02 01:53:01;;;;;;;14.57;13.32;;;11.80;88.10;;;;;;5016407;29;20117;-69
2021/10/02 01:55:35;;;;;;;14.38;13.18;;;11.70;89.20;;;;;;5003409;29;20916;-71
2021/10/02 01:58:10;;;;;;;14.13;12.95;;;11.60;89.00;;;;;;5015189;29;20484;-70
2021/10/02 02:00:45;;;;;;;14.23;12.98;;;11.60;89.10;;;;;;5017003;29;20065;-70
2021/10/02 02:03:20;;;;;;;14.00;12.90;;;11.70;89.40;;;;;;5015927;29;20108;-69
2021/10/02 02:05:54;;;;;;;13.40;12.30;;;11.70;88.50;;;;;;5014550;29;20060;-70
2021/10/02 02:08:28;;;;;;;13.13;11.95;;;11.70;87.50;;;;;;5001098;29;20133;-69
2021/10/02 02:11:21;;;;;;;12.63;11.63;;;11.70;87.80;;;;;;5015198;29;20052;-70
2021/10/02 02:13:56;;;;;;;13.25;12.18;;;11.80;86.30;;;;;;5004605;29;20130;-70
2021/10/02 02:16:29;;;;;;;13.10;12.10;;;11.80;85.90;;;;;;5015361;29;20053;-69
2021/10/02 02:19:02;;;;;;;13.65;12.57;;;11.80;86.20;;;;;;5016771;29;20048;-69
2021/10/02 02:21:34;;;;;;;14.27;12.98;;;11.80;87.80;;;;;;5016362;29;20592;-69
2021/10/02 02:24:06;;;;;;;13.30;12.10;;;11.80;88.10;;;;;;5015471;29;20128;-69
2021/10/02 02:26:39;;;;;;;13.55;12.45;;;11.80;88.30;;;;;;5019264;29;20065;-69
2021/10/02 02:29:11;;;;;;;13.85;12.60;;;11.80;89.00;;;;;;5020838;29;20109;-69
2021/10/02 02:31:43;;;;;;;13.82;12.35;;;11.70;88.40;;;;;;5019918;29;20136;-69
2021/10/02 02:34:20;;;;;;;13.80;12.60;;;11.80;87.90;;;;;;5020013;29;20042;-68
2021/10/02 02:36:52;;;;;;;13.95;12.85;;;11.80;87.60;;;;;;5019362;29;20042;-71
2021/10/02 02:39:25;;;;;;;14.68;12.60;;;11.80;87.90;;;;;;5019012;29;20152;-69
2021/10/02 02:41:57;;;;;;;13.48;12.25;;;11.80;88.40;;;;;;5018996;29;20052;-70
2021/10/02 02:44:30;;;;;;;13.68;12.63;;;11.80;87.70;;;;;;5019275;29;20057;-69
2021/10/02 02:47:07;;;;;;;13.18;12.07;;;11.90;87.60;;;;;;5018652;29;20570;-68
2021/10/02 02:50:06;;;;;;;12.40;11.43;;;11.90;87.10;;;;;;5020051;29;20101;-68
2021/10/02 02:53:01;;;;;;;13.55;12.45;;;11.90;86.80;;;;;;5018837;29;20046;-69
2021/10/02 02:55:41;;;;;;;12.75;11.75;;;11.90;87.10;;;;;;5019884;29;20053;-70
2021/10/02 02:58:16;;;;;;;13.30;12.30;;;11.90;86.60;;;;;;5019820;29;20052;-69
2021/10/02 03:01:00;;;;;;;12.85;11.85;;;11.90;86.60;;;;;;5019286;29;20084;-70
2021/10/02 03:03:34;;;;;;;12.75;11.65;;;11.90;86.70;;;;;;5018995;29;20068;-69
2021/10/02 03:06:10;;;;;;;13.07;12.07;;;11.90;86.50;;;;;;5009871;29;20049;-68
2021/10/02 03:08:46;;;;;;;13.48;12.48;;;11.90;86.80;;;;;;5019956;29;20041;-69
2021/10/02 03:11:21;;;;;;;12.40;11.38;;;11.90;86.70;;;;;;5018360;29;20206;-69
2021/10/02 03:13:56;;;;;;;12.27;11.27;;;11.90;86.80;;;;;;5019117;29;20457;-69
2021/10/02 03:16:29;;;;;;;12.73;11.70;;;12.00;86.60;;;;;;5018308;29;20059;-70
2021/10/02 03:19:03;;;;;;;13.50;12.40;;;12.00;87.80;;;;;;5019285;29;20101;-69
2021/10/02 03:21:37;;;;;;;13.20;12.02;;;12.00;88.90;;;;;;5019685;29;20521;-69
2021/10/02 03:24:09;;;;;;;12.98;11.98;;;11.90;88.90;;;;;;5004159;29;20061;-68
2021/10/02 03:26:42;;;;;;;13.45;12.25;;;11.90;88.00;;;;;;5008717;29;20049;-69
2021/10/02 03:29:14;;;;;;;13.18;12.18;;;12.00;87.90;;;;;;5003413;29;20180;-71
2021/10/02 03:31:47;;;;;;;13.30;12.30;;;12.00;88.70;;;;;;5018394;29;20189;-70
2021/10/02 03:34:19;;;;;;;13.20;12.20;;;12.00;88.80;;;;;;5005038;29;20057;-69
2021/10/02 03:36:51;;;;;;;13.48;12.25;;;12.00;88.30;;;;;;5015943;29;20091;-69
2021/10/02 03:39:23;;;;;;;15.65;12.85;;;12.10;87.80;;;;;;4980003;29;20623;-69
2021/10/02 03:42:12;;;;;;;13.57;12.48;;;12.00;88.30;;;;;;5018861;29;20052;-69
2021/10/02 03:44:46;;;;;;;14.20;12.80;;;12.10;87.90;;;;;;5007819;29;20080;-69
2021/10/02 03:47:20;;;;;;;13.90;12.70;;;12.10;88.40;;;;;;5005065;29;20053;-68
2021/10/02 03:49:52;;;;;;;13.77;12.68;;;12.10;89.00;;;;;;4993893;29;20453;-68
2021/10/02 03:52:24;;;;;;;13.93;12.60;;;12.10;88.20;;;;;;4990506;29;20136;-69
2021/10/02 03:54:56;;;;;;;14.75;13.52;;;12.10;88.90;;;;;;5003271;29;20136;-68
2021/10/02 03:57:28;;;;;;;14.77;13.57;;;12.10;88.80;;;;;;5008519;29;20053;-69
2021/10/02 04:00:00;;;;;;;14.80;13.60;;;12.10;89.30;;;;;;5006461;29;20095;-69
2021/10/02 04:02:36;;;;;;;14.63;13.32;;;12.10;88.80;;;;;;5018462;29;20053;-69
2021/10/02 04:05:09;;;;;;;14.45;13.35;;;12.20;89.10;;;;;;5017178;29;20045;-68
2021/10/02 04:07:40;;;;;;;15.20;13.80;;;12.10;90.10;;;;;;5017171;29;20073;-69
2021/10/02 04:10:12;;;;;;;15.20;14.05;;;12.10;89.60;;;;;;5017686;29;20621;-68
2021/10/02 04:12:44;;;;;;;14.38;13.27;;;12.10;89.20;;;;;;5019916;29;20081;-69
2021/10/02 04:15:16;;;;;;;14.38;13.18;;;12.20;89.00;;;;;;5016887;29;20638;-68
2021/10/02 04:17:48;;;;;;;14.13;12.93;;;12.20;88.50;;;;;;5017804;29;20079;-69
2021/10/02 04:20:20;;;;;;;15.40;14.10;;;12.20;88.70;;;;;;5017535;29;20033;-69
2021/10/02 04:22:52;;;;;;;14.40;13.00;;;12.20;88.90;;;;;;5017882;29;20046;-68
2021/10/02 04:25:24;;;;;;;14.20;13.10;;;12.20;89.70;;;;;;5018672;29;20132;-68
2021/10/02 04:27:56;;;;;;;14.98;13.75;;;12.20;89.00;;;;;;5005052;29;20427;-69
2021/10/02 04:30:28;;;;;;;14.82;13.48;;;12.20;89.30;;;;;;5018506;29;20104;-68
2021/10/02 04:32:59;;;;;;;14.77;13.48;;;12.30;89.10;;;;;;5018854;29;20054;-69
2021/10/02 04:35:31;;;;;;;14.52;13.43;;;12.30;90.10;;;;;;5017815;29;20129;-69
2021/10/02 04:38:03;;;;;;;14.70;13.60;;;12.20;90.40;;;;;;5018231;29;20448;-69
2021/10/02 04:40:35;;;;;;;14.68;13.48;;;12.10;89.50;;;;;;5017731;29;20470;-68
2021/10/02 04:43:07;;;;;;;15.30;13.95;;;12.10;89.70;;;;;;5006527;29;20437;-68
2021/10/02 04:45:39;;;;;;;14.68;13.57;;;12.20;89.50;;;;;;5017606;29;20138;-68
2021/10/02 04:48:11;;;;;;;14.38;13.27;;;12.20;89.80;;;;;;5016294;29;20069;-69
2021/10/02 04:50:43;;;;;;;14.20;13.10;;;12.20;89.70;;;;;;5004725;29;20117;-68
2021/10/02 04:53:15;;;;;;;15.70;14.02;;;12.20;89.90;;;;;;5017519;29;20128;-68
2021/10/02 04:55:46;;;;;;;14.20;13.00;;;12.20;89.70;;;;;;5017671;29;20077;-69
2021/10/02 04:58:18;;;;;;;14.65;13.45;;;12.10;89.60;;;;;;5017367;29;20133;-67
2021/10/02 05:00:50;;;;;;;14.05;12.95;;;12.10;90.10;;;;;;5017424;29;20844;-68
2021/10/02 05:03:22;;;;;;;14.20;12.95;;;12.10;90.10;;;;;;5003536;29;20050;-68
2021/10/02 05:05:55;;;;;;;13.70;12.60;;;12.10;89.90;;;;;;5013755;29;20145;-69
2021/10/02 05:08:28;;;;;;;13.15;12.15;;;12.10;90.10;;;;;;5004110;29;20053;-71
2021/10/02 05:11:00;;;;;;;14.55;13.25;;;12.10;90.40;;;;;;5017603;29;20928;-69
2021/10/02 05:13:34;;;;;;;15.05;13.82;;;12.10;89.70;;;;;;5004565;29;20057;-70
2021/10/02 05:16:06;;;;;;;15.40;13.82;;;12.10;90.30;;;;;;5015656;29;20061;-69
2021/10/02 05:18:37;;;;;;;14.48;13.18;;;12.10;90.30;;;;;;5017111;29;20401;-69
2021/10/02 05:21:10;;;;;;;14.13;13.02;;;12.10;89.90;;;;;;5003534;29;20116;-69
2021/10/02 05:23:42;;;;;;;13.38;12.27;;;12.00;90.20;;;;;;5017348;29;20597;-68
2021/10/02 05:26:14;;;;;;;13.95;12.85;;;12.00;89.70;;;;;;5017494;29;20144;-68
2021/10/02 05:28:46;;;;;;;14.40;13.10;;;12.10;89.80;;;;;;5005559;29;20137;-68
2021/10/02 05:31:18;;;;;;;13.75;12.65;;;12.10;90.00;;;;;;5003125;29;20057;-68
2021/10/02 05:33:50;;;;;;;14.82;13.70;;;12.10;89.80;;;;;;5017498;29;20037;-69
2021/10/02 05:36:22;;;;;;;14.55;13.43;;;12.10;89.40;;;;;;5001487;29;20064;-69
2021/10/02 05:38:54;;;;;;;14.32;12.93;;;12.20;89.90;;;;;;5017586;29;20052;-69
2021/10/02 05:41:26;;;;;;;15.00;13.80;;;12.20;89.60;;;;;;4988454;29;20509;-69
2021/10/02 05:43:58;;;;;;;15.23;13.90;;;12.10;90.00;;;;;;5004417;29;20128;-69
2021/10/02 05:46:30;;;;;;;14.23;12.93;;;12.20;90.40;;;;;;4972488;29;20089;-68
2021/10/02 05:49:02;;;;;;;15.20;14.00;;;12.10;90.10;;;;;;5004835;29;20049;-68
2021/10/02 05:51:34;;;;;;;16.05;14.57;;;12.10;90.10;;;;;;5002197;29;20056;-69
2021/10/02 05:54:08;;;;;;;14.80;13.50;;;12.10;90.30;;;;;;5003401;29;20530;-69
2021/10/02 05:56:40;;;;;;;13.70;12.48;;;12.10;90.50;;;;;;5002719;29;20090;-69
2021/10/02 05:59:11;;;;;;;14.00;12.85;;;12.10;90.50;;;;;;4991049;29;20202;-69
2021/10/02 06:01:44;;;;;;;14.77;13.45;;;12.10;89.90;;;;;;4993468;29;20508;-69
2021/10/02 06:04:16;;;;;;;14.48;13.18;;;12.10;90.00;;;;;;5020764;29;20037;-69
2021/10/02 06:06:48;;;;;;;13.85;12.75;;;12.20;90.10;;;;;;5007363;29;20050;-70
2021/10/02 06:09:20;;;;;;;14.30;12.88;;;12.20;89.90;;;;;;5026770;29;20133;-69
2021/10/02 06:11:52;;;;;;;14.60;13.25;;;12.20;89.50;;;;;;5021035;29;20519;-68
2021/10/02 06:14:24;;;;;;;14.23;13.13;;;12.30;89.30;;;;;;5022922;29;20136;-68
2021/10/02 06:16:56;;;;;;;14.05;12.82;;;12.30;89.40;;;;;;5022360;29;20050;-69
2021/10/02 06:19:28;;;;;;;14.75;13.02;;;12.30;89.40;;;;;;5010454;29;20098;-69
2021/10/02 06:22:00;;;;;;;15.07;13.65;;;12.40;89.40;;;;;;5023199;29;20054;-68
2021/10/02 06:24:34;;;;;;;14.30;12.52;;;12.30;89.40;;;;;;5023766;29;20053;-70
2021/10/02 06:27:06;;;;;;;13.80;12.80;;;12.40;89.00;;;;;;5023299;29;20182;-70
2021/10/02 06:29:38;;;;;;;13.68;12.57;;;12.30;89.10;;;;;;5026042;29;20464;-69
2021/10/02 06:32:10;;;;;;;14.02;12.93;;;12.30;89.10;;;;;;5021701;29;20591;-68
2021/10/02 06:34:42;;;;;;;13.70;12.60;;;12.40;88.90;;;;;;5023190;29;20073;-70
2021/10/02 06:37:13;;;;;;;14.30;13.10;;;12.40;88.90;;;;;;5021590;29;20053;-70
2021/10/02 06:39:45;;;;;;;14.57;13.45;;;12.50;88.30;;;;;;5021923;29;20072;-70
2021/10/02 06:42:17;;;;;;;14.27;13.18;;;12.60;88.40;;;;;;5023331;29;20053;-69
2021/10/02 06:44:49;;;;;;;15.02;13.82;;;12.70;89.30;;;;;;5022646;29;20136;-69
2021/10/02 06:47:23;;;;;;;14.70;13.50;;;12.80;89.50;;;;;;5021968;29;20053;-69
2021/10/02 06:50:00;;;;;;;14.90;13.70;;;12.90;88.80;;;;;;5021961;29;20155;-69
2021/10/02 06:52:32;;;;;;;14.93;13.63;;;12.90;90.80;;;;;;5020566;29;20160;-70
2021/10/02 06:55:07;;;;;;;15.73;14.52;;;12.90;90.00;;;;;;5022084;29;20161;-69
2021/10/02 06:57:39;;;;;;;15.13;13.73;;;13.00;89.30;;;;;;5021601;29;20077;-69
2021/10/02 07:00:12;;;;;;;15.43;14.13;;;13.00;88.80;;;;;;5020910;29;20447;-69
2021/10/02 07:02:45;;;;;;;15.75;14.43;;;13.00;89.00;;;;;;5023103;29;20030;-69
2021/10/02 07:05:17;;;;;;;16.08;14.68;;;13.20;89.20;;;;;;5020878;29;20057;-69
2021/10/02 07:07:49;;;;;;;15.38;14.25;;;13.40;89.20;;;;;;5021934;29;20148;-69
2021/10/02 07:10:21;;;;;;;15.75;14.45;;;13.50;88.60;;;;;;5021562;29;20128;-69
2021/10/02 07:12:54;;;;;;;15.35;14.13;;;13.50;88.70;;;;;;5018168;29;20060;-69
2021/10/02 07:15:26;;;;;;;15.48;14.27;;;13.50;88.80;;;;;;5016936;29;20144;-69
2021/10/02 07:17:58;;;;;;;15.70;14.50;;;13.60;89.30;;;;;;5019010;29;20146;-69
2021/10/02 07:20:30;;;;;;;15.65;14.45;;;13.60;89.00;;;;;;5004919;29;20053;-70
2021/10/02 07:23:01;;;;;;;15.38;14.13;;;13.60;89.10;;;;;;5019283;29;20121;-69
2021/10/02 07:25:33;;;;;;;15.63;14.43;;;13.60;88.70;;;;;;5018023;29;20057;-69
2021/10/02 07:28:05;;;;;;;15.43;14.23;;;13.60;89.30;;;;;;5019007;29;20477;-69
2021/10/02 07:30:37;;;;;;;16.55;15.07;;;13.70;89.60;;;;;;5018783;29;20140;-69
2021/10/02 07:33:09;;;;;;;17.20;15.80;;;13.70;89.70;;;;;;5018734;29;20205;-69
2021/10/02 07:35:41;;;;;;;15.60;14.40;;;13.80;90.00;;;;;;5017726;29;20128;-69
2021/10/02 07:38:13;;;;;;;16.23;14.60;;;13.80;89.20;;;;;;5019238;29;20053;-70
2021/10/02 07:40:47;;;;;;;15.30;14.10;;;13.90;88.50;;;;;;5018116;29;20051;-69
2021/10/02 07:43:21;;;;;;;15.98;14.65;;;13.90;88.30;;;;;;5018388;29;20423;-70
2021/10/02 07:45:54;;;;;;;16.23;14.98;;;13.90;87.10;;;;;;5017995;29;20069;-69
2021/10/02 07:48:26;;;;;;;16.10;14.90;;;14.00;85.00;;;;;;5018319;29;20053;-70
2021/10/02 07:50:58;;;;;;;16.77;15.43;;;14.20;85.60;;;;;;5015905;29;20417;-69
2021/10/02 07:53:31;;;;;;;16.73;15.45;;;14.40;85.10;;;;;;5005149;29;20073;-70
2021/10/02 07:56:07;;;;;;;16.45;15.25;;;14.60;84.50;;;;;;5016966;29;20089;-71
2021/10/02 07:58:40;;;;;;;17.20;15.80;;;14.80;84.70;;;;;;5005354;29;20601;-69
2021/10/02 08:01:13;;;;;;;17.38;16.08;;;15.00;83.80;;;;;;5017199;29;20057;-69
2021/10/02 08:03:45;;;;;;;16.52;15.23;;;15.30;84.20;;;;;;5017534;29;20084;-70
2021/10/02 08:06:17;;;;;;;17.65;16.25;;;15.50;83.50;;;;;;5016400;29;20160;-70
2021/10/02 08:08:51;;;;;;;17.83;16.42;;;15.80;81.10;;;;;;5018300;29;20145;-70
2021/10/02 08:11:23;;;;;;;16.88;15.63;;;16.10;82.00;;;;;;5017770;29;20060;-70
2021/10/02 08:13:55;;;;;;;17.33;15.90;;;16.20;80.10;;;;;;5004133;29;20060;-70
2021/10/02 08:16:30;;;;;;;19.20;17.67;;;16.40;80.10;;;;;;5017799;29;20059;-71
2021/10/02 08:19:03;;;;;;;18.02;16.63;;;16.70;79.70;;;;;;5019484;29;20132;-72
2021/10/02 08:21:39;;;;;;;18.42;17.05;;;16.90;78.10;;;;;;5018509;29;20429;-70
2021/10/02 08:24:13;;;;;;;18.50;17.10;;;17.10;78.00;;;;;;5018284;29;20139;-69
2021/10/02 08:26:50;;;;;;;18.50;17.10;;;17.30;76.70;;;;;;5007692;29;20465;-69
2021/10/02 08:29:22;;;;;;;17.98;16.58;;;17.40;77.50;;;;;;5019094;29;20105;-70
2021/10/02 08:31:54;;;;;;;18.88;17.45;;;17.60;76.90;;;;;;5015991;29;20057;-69
2021/10/02 08:34:28;;;;;;;17.92;16.63;;;17.60;76.00;;;;;;5015522;29;20109;-69
2021/10/02 08:37:00;;;;;;;18.08;16.67;;;17.70;76.10;;;;;;5002633;29;20572;-69
2021/10/02 08:39:32;;;;;;;18.55;17.15;;;17.90;75.10;;;;;;5016700;29;20115;-71
2021/10/02 08:42:05;;;;;;;19.80;18.05;;;18.00;76.00;;;;;;5017128;29;20049;-70
2021/10/02 08:44:37;;;;;;;19.17;17.77;;;18.20;74.90;;;;;;5018516;29;20060;-70
2021/10/02 08:47:10;;;;;;;19.15;17.75;;;18.30;74.30;;;;;;5016575;29;20081;-71
2021/10/02 08:49:46;;;;;;;19.10;17.70;;;18.40;74.50;;;;;;5018084;29;20132;-70
2021/10/02 08:52:22;;;;;;;18.95;17.45;;;18.50;73.40;;;;;;5018334;29;20792;-70
2021/10/02 08:54:55;;;;;;;18.70;17.08;;;18.50;73.50;;;;;;5017315;29;20082;-70
2021/10/02 08:57:29;;;;;;;19.45;18.02;;;18.60;74.40;;;;;;5017952;29;20140;-71
2021/10/02 09:00:07;;;;;;;19.25;17.85;;;18.70;72.80;;;;;;5017278;29;20090;-70
2021/10/02 09:02:40;;;;;;;18.23;16.85;;;18.80;70.50;;;;;;5017421;29;20077;-71
2021/10/02 09:05:13;;;;;;;18.33;16.92;;;18.80;72.30;;;;;;4991600;29;20419;-70
2021/10/02 09:07:52;;;;;;;18.30;16.83;;;18.70;69.10;;;;;;5013087;29;20060;-70
2021/10/02 09:10:26;;;;;;;17.75;16.45;;;18.60;69.80;;;;;;5016382;29;20098;-69
2021/10/02 09:12:59;;;;;;;18.45;16.95;;;18.50;68.70;;;;;;5002991;29;20050;-69
2021/10/02 09:15:31;;;;;;;17.85;16.45;;;18.50;69.10;;;;;;5013640;29;20136;-69
2021/10/02 09:18:03;;;;;;;18.15;16.65;;;18.40;71.00;;;;;;5014936;29;21168;-70
2021/10/02 09:20:35;;;;;;;18.27;16.80;;;18.40;71.50;;;;;;5016287;29;20156;-69
2021/10/02 09:23:08;;;;;;;17.52;16.17;;;18.40;72.20;;;;;;5017480;29;20124;-70
2021/10/02 09:25:48;;;;;;;17.58;16.17;;;18.40;70.40;;;;;;5016768;29;20057;-69
2021/10/02 09:28:19;;;;;;;17.73;16.42;;;18.50;70.70;;;;;;5016810;29;20045;-70
2021/10/02 09:31:04;;;;;;;17.88;16.50;;;18.60;71.30;;;;;;5014663;29;20050;-71
2021/10/02 09:33:36;;;;;;;18.52;16.83;;;18.70;70.50;;;;;;5017347;29;20489;-68
2021/10/02 09:36:20;;;;;;;18.63;17.13;;;18.70;68.00;;;;;;5014812;29;20765;-67
2021/10/02 09:38:53;;;;;;;19.25;17.65;;;18.90;70.30;;;;;;5016420;29;20045;-68
2021/10/02 09:41:28;;;;;;;18.40;16.98;;;19.00;67.20;;;;;;5014984;29;20140;-68
2021/10/02 09:43:59;;;;;;;19.60;17.23;;;19.20;67.80;;;;;;5018200;29;20064;-68
2021/10/02 09:46:34;;;;;;;19.52;18.13;;;19.30;65.10;;;;;;5015611;29;20125;-68
2021/10/02 09:49:06;;;;;;;18.75;17.25;;;19.40;65.20;;;;;;5003316;29;20057;-68
2021/10/02 09:51:40;;;;;;;19.02;17.63;;;19.60;65.90;;;;;;5013861;29;20616;-69
2021/10/02 09:54:37;;;;;;;18.70;17.40;;;19.60;67.50;;;;;;5016247;29;20120;-68
2021/10/02 09:57:12;;;;;;;18.42;17.02;;;19.80;68.60;;;;;;5016741;29;20141;-69
2021/10/02 09:59:44;;;;;;;19.30;17.80;;;19.90;65.30;;;;;;5017060;29;20420;-68
2021/10/02 10:02:20;;;;;;;19.20;17.75;;;19.90;62.30;;;;;;5016987;29;20134;-68
2021/10/02 10:04:55;;;;;;;18.67;17.27;;;20.00;65.10;;;;;;5016662;29;20473;-69
2021/10/02 10:07:27;;;;;;;20.45;18.70;;;19.90;64.80;;;;;;5015977;29;20151;-68
2021/10/02 10:10:04;;;;;;;19.38;17.98;;;20.00;64.30;;;;;;5016508;29;20136;-68
2021/10/02 10:12:37;;;;;;;20.70;19.10;;;20.00;61.60;;;;;;5017353;29;20096;-68
2021/10/02 10:15:30;;;;;;;19.75;18.30;;;20.00;64.20;;;;;;5001628;29;20137;-69
2021/10/02 10:18:03;;;;;;;19.70;18.20;;;20.10;63.60;;;;;;5016497;29;20584;-69
2021/10/02 10:20:39;;;;;;;20.50;18.60;;;20.20;65.80;;;;;;5016953;29;20140;-68
2021/10/02 10:23:11;;;;;;;19.92;18.17;;;20.20;64.80;;;;;;5017803;29;20921;-68
2021/10/02 10:25:55;;;;;;;19.13;17.63;;;20.30;66.20;;;;;;5015703;29;20081;-67
2021/10/02 10:28:33;;;;;;;19.30;17.90;;;20.30;64.70;;;;;;5015573;29;20164;-70
2021/10/02 10:31:20;;;;;;;21.40;18.98;;;20.30;63.10;;;;;;5016008;29;20045;-68
2021/10/02 10:33:57;;;;;;;24.02;18.50;;;20.40;64.10;;;;;;5016317;29;20054;-67
2021/10/02 10:36:31;;;;;;;26.92;19.45;;;20.40;63.00;;;;;;5016761;29;20062;-67
2021/10/02 10:39:04;;;;;;;20.63;18.42;;;20.40;63.30;;;;;;5015218;29;20481;-66
2021/10/02 10:41:36;;;;;;;20.00;18.20;;;20.50;62.40;;;;;;5016598;29;20064;-68
2021/10/02 10:44:08;;;;;;;39.25;19.13;;;20.40;63.10;;;;;;5016222;29;20511;-68
2021/10/02 10:46:41;;;;;;;19.58;18.08;;;20.50;64.70;;;;;;5015901;29;20063;-68
2021/10/02 10:49:13;;;;;;;18.85;17.52;;;20.50;63.70;;;;;;5017567;29;20049;-67
2021/10/02 10:51:45;;;;;;;20.40;18.90;;;20.50;62.40;;;;;;5020181;29;20902;-67
2021/10/02 10:54:18;;;;;;;19.77;18.27;;;20.50;63.10;;;;;;5020058;29;20080;-68
2021/10/02 10:56:52;;;;;;;19.95;18.33;;;20.60;63.90;;;;;;5019392;29;20457;-67
2021/10/02 10:59:24;;;;;;;19.35;17.95;;;20.70;63.00;;;;;;5018880;29;20148;-70
2021/10/02 11:01:56;;;;;;;20.67;19.08;;;20.70;62.50;;;;;;5018149;29;20132;-68
2021/10/02 11:04:31;;;;;;;20.23;18.83;;;20.70;62.90;;;;;;5019019;29;20571;-68
2021/10/02 11:07:04;;;;;;;19.83;18.33;;;20.70;63.80;;;;;;5018198;29;20049;-68
2021/10/02 11:09:40;;;;;;;20.05;18.35;;;20.70;63.30;;;;;;5019483;29;20805;-68
2021/10/02 11:12:14;;;;;;;20.45;18.77;;;20.70;64.00;;;;;;5018295;29;20465;-69
2021/10/02 11:14:54;;;;;;;19.50;18.05;;;20.80;63.00;;;;;;5006105;29;20144;-68
2021/10/02 11:17:44;;;;;;;19.35;17.95;;;20.80;63.50;;;;;;5017694;29;20132;-69
2021/10/02 11:20:17;;;;;;;19.08;17.52;;;20.90;63.60;;;;;;5015222;29;20053;-68
2021/10/02 11:23:37;;;;;;;18.98;17.58;;;20.80;62.80;;;;;;5020448;29;20074;-69
2021/10/02 11:26:09;;;;;;;19.30;17.73;;;20.80;62.40;;;;;;5019424;29;20546;-67
2021/10/02 11:28:42;;;;;;;19.38;17.92;;;20.80;63.20;;;;;;5020113;29;20116;-68
2021/10/02 11:31:20;;;;;;;20.45;18.95;;;20.90;62.90;;;;;;5005975;29;20052;-68
2021/10/02 11:33:54;;;;;;;18.77;17.42;;;20.90;62.50;;;;;;5019375;29;20121;-67
2021/10/02 11:36:32;;;;;;;19.75;18.15;;;20.90;63.10;;;;;;5018721;29;20049;-68
2021/10/02 11:39:11;;;;;;;19.38;17.77;;;20.90;62.80;;;;;;5018508;29;20125;-68
2021/10/02 11:41:50;;;;;;;18.77;17.48;;;20.90;61.70;;;;;;5018360;29;20049;-68
2021/10/02 11:44:30;;;;;;;19.30;17.77;;;21.00;62.50;;;;;;5017233;29;20053;-70
2021/10/02 11:47:24;;;;;;;18.75;17.40;;;21.00;61.40;;;;;;5017263;29;20049;-68
2021/10/02 11:50:12;;;;;;;19.00;17.55;;;21.00;62.70;;;;;;5017359;29;20064;-69
2021/10/02 11:52:43;;;;;;;18.73;17.27;;;21.10;62.70;;;;;;5018007;29;20529;-69
2021/10/02 11:55:39;;;;;;;18.50;17.10;;;21.10;62.20;;;;;;5017796;29;20045;-69
2021/10/02 11:58:13;;;;;;;19.45;18.02;;;21.10;61.40;;;;;;5016459;29;20052;-69
2021/10/02 12:00:48;;;;;;;19.58;18.17;;;21.10;60.00;;;;;;5018864;29;20060;-68
2021/10/02 12:03:23;;;;;;;19.20;17.60;;;21.10;62.30;;;;;;5017416;29;20045;-68
2021/10/02 12:05:57;;;;;;;19.65;17.95;;;21.10;61.70;;;;;;5016154;29;20437;-68
2021/10/02 12:08:32;;;;;;;18.83;17.48;;;21.10;61.70;;;;;;5017758;29;20045;-69
2021/10/02 12:11:08;;;;;;;18.73;17.33;;;21.10;61.60;;;;;;5011842;29;20592;-69
2021/10/02 12:13:40;;;;;;;19.27;17.88;;;21.20;61.80;;;;;;5015860;29;20069;-69
2021/10/02 12:16:15;;;;;;;18.60;17.30;;;21.10;61.30;;;;;;5017734;29;20110;-69
2021/10/02 12:18:57;;;;;;;19.42;17.88;;;21.10;62.40;;;;;;5013981;29;20048;-68
2021/10/02 12:21:55;;;;;;;19.13;17.73;;;21.20;63.00;;;;;;5016695;29;20798;-68
2021/10/02 12:24:33;;;;;;;19.48;18.05;;;21.20;61.90;;;;;;5014973;29;20502;-69
2021/10/02 12:27:07;;;;;;;19.23;17.83;;;21.10;62.20;;;;;;5017649;29;20528;-69
2021/10/02 12:29:51;;;;;;;18.58;17.17;;;21.20;62.70;;;;;;5018511;29;20049;-69
2021/10/02 12:32:28;;;;;;;19.67;18.27;;;21.20;61.80;;;;;;5015083;29;20049;-68
2021/10/02 12:35:00;;;;;;;19.13;17.73;;;21.30;62.50;;;;;;5000622;29;20140;-68
2021/10/02 12:37:35;;;;;;;19.40;18.00;;;21.20;61.00;;;;;;5011121;29;20081;-69
2021/10/02 12:40:10;;;;;;;19.63;18.23;;;21.20;60.80;;;;;;5008860;29;20045;-69
2021/10/02 12:42:48;;;;;;;18.63;17.23;;;21.20;60.80;;;;;;5017132;29;20097;-69
2021/10/02 12:45:25;;;;;;;19.90;18.48;;;21.20;60.80;;;;;;5014958;29;20056;-69
2021/10/02 12:48:05;;;;;;;18.67;17.38;;;21.20;61.90;;;;;;4996913;29;20405;-69
2021/10/02 12:50:43;;;;;;;18.77;17.38;;;21.20;61.00;;;;;;5010543;29;20054;-69
2021/10/02 12:53:18;;;;;;;19.52;18.13;;;21.20;61.60;;;;;;5017065;29;20053;-69
2021/10/02 12:55:50;;;;;;;19.77;18.25;;;21.20;60.60;;;;;;5017494;29;20046;-68
2021/10/02 12:58:24;;;;;;;20.52;18.98;;;21.20;61.20;;;;;;4978893;29;20515;-68
2021/10/02 13:00:56;;;;;;;19.58;18.17;;;21.20;61.70;;;;;;5014096;29;20053;-68
2021/10/02 13:03:29;;;;;;;19.80;18.30;;;21.20;61.20;;;;;;5014653;29;20424;-70
2021/10/02 13:06:01;;;;;;;19.05;17.65;;;21.20;61.60;;;;;;5015475;29;20049;-69
2021/10/02 13:08:33;;;;;;;19.58;18.05;;;21.00;61.60;;;;;;5016083;29;20080;-70
2021/10/02 13:11:05;;;;;;;19.25;17.85;;;20.80;62.50;;;;;;5013423;29;20081;-69
2021/10/02 13:13:40;;;;;;;19.35;17.95;;;20.80;63.30;;;;;;5014861;29;20133;-68
2021/10/02 13:16:20;;;;;;;19.48;18.08;;;20.70;63.50;;;;;;5015130;29;20938;-68
2021/10/02 13:18:54;;;;;;;18.55;17.25;;;20.70;64.50;;;;;;5015595;29;20505;-69
2021/10/02 13:21:26;;;;;;;19.77;18.02;;;20.90;62.40;;;;;;5016242;29;20543;-68
2021/10/02 13:24:06;;;;;;;18.73;17.33;;;21.00;64.00;;;;;;5013572;29;20132;-69
2021/10/02 13:26:46;;;;;;;19.63;17.77;;;21.00;63.20;;;;;;5016098;29;20316;-69
2021/10/02 13:29:27;;;;;;;19.48;18.05;;;20.90;65.00;;;;;;5016223;29;20160;-68
2021/10/02 13:32:16;;;;;;;19.23;17.83;;;21.00;65.30;;;;;;5016179;29;20560;-68
2021/10/02 13:34:54;;;;;;;19.05;17.65;;;20.90;65.10;;;;;;5005265;29;20110;-68
2021/10/02 13:37:26;;;;;;;18.70;17.40;;;21.00;63.20;;;;;;5014566;29;20137;-68
2021/10/02 13:40:02;;;;;;;18.48;16.98;;;20.90;65.60;;;;;;5017796;29;20084;-68
2021/10/02 13:42:34;;;;;;;18.52;17.13;;;20.90;65.70;;;;;;5016849;29;20059;-70
2021/10/02 13:45:06;;;;;;;19.00;17.55;;;20.80;64.60;;;;;;5015081;29;20047;-70
2021/10/02 13:47:38;;;;;;;18.90;17.52;;;20.70;64.50;;;;;;5012260;29;20765;-68
2021/10/02 13:50:10;;;;;;;18.42;17.13;;;20.70;64.90;;;;;;5004240;29;20053;-69
2021/10/02 13:52:43;;;;;;;18.58;17.27;;;20.60;65.90;;;;;;5015242;29;20049;-70
2021/10/02 13:55:15;;;;;;;19.33;17.83;;;20.50;65.80;;;;;;5002446;29;20528;-69
2021/10/02 13:57:47;;;;;;;18.10;16.80;;;20.50;67.10;;;;;;5014884;29;20147;-68
2021/10/02 14:00:19;;;;;;;18.00;16.70;;;20.50;65.60;;;;;;5016916;29;20517;-69
2021/10/02 14:02:52;;;;;;;17.80;16.50;;;20.40;66.80;;;;;;5016634;29;20177;-71
2021/10/02 14:05:25;;;;;;;18.25;16.85;;;20.30;66.30;;;;;;5016147;29;20073;-69